sensor_id;sensor_type;location;lat;lon;timestamp;P1;durP1;ratioP1;P2;durP2;ratioP2
12788;SDS011;6458;42.710;23.192;2024-03-08T00:00:22;3.93;;;3.70;;
12788;SDS011;6458;42.710;23.192;2024-03-08T00:02:49;3.53;;;3.33;;
12788;SDS011;6458;42.710;23.192;2024-03-08T00:05:18;4.23;;;3.90;;
12788;SDS011;6458;42.710;23.192;2024-03-08T00:07:48;2.73;;;2.53;;
12788;SDS011;6458;42.710;23.192;2024-03-08T00:10:15;3.27;;;3.07;;
12788;SDS011;6458;42.710;23.192;2024-03-08T00:12:43;3.23;;;3.03;;
12788;SDS011;6458;42.710;23.192;2024-03-08T00:15:11;3.73;;;3.43;;
12788;SDS011;6458;42.710;23.192;2024-03-08T00:17:40;3.00;;;2.80;;
12788;SDS011;6458;42.710;23.192;2024-03-08T00:20:07;3.03;;;2.93;;
12788;SDS011;6458;42.710;23.192;2024-03-08T00:22:36;3.90;;;3.40;;
12788;SDS011;6458;42.710;23.192;2024-03-08T00:25:06;3.57;;;3.27;;
12788;SDS011;6458;42.710;23.192;2024-03-08T00:27:34;3.37;;;3.17;;
12788;SDS011;6458;42.710;23.192;2024-03-08T00:30:01;3.43;;;3.23;;
12788;SDS011;6458;42.710;23.192;2024-03-08T00:32:28;2.60;;;2.50;;
12788;SDS011;6458;42.710;23.192;2024-03-08T00:34:58;2.73;;;2.53;;
12788;SDS011;6458;42.710;23.192;2024-03-08T00:37:25;3.43;;;3.23;;
12788;SDS011;6458;42.710;23.192;2024-03-08T00:39:52;3.30;;;3.00;;
12788;SDS011;6458;42.710;23.192;2024-03-08T00:42:19;3.07;;;2.77;;
12788;SDS011;6458;42.710;23.192;2024-03-08T00:44:47;3.00;;;2.90;;
12788;SDS011;6458;42.710;23.192;2024-03-08T00:47:16;3.10;;;2.90;;
12788;SDS011;6458;42.710;23.192;2024-03-08T00:49:43;2.90;;;2.70;;
12788;SDS011;6458;42.710;23.192;2024-03-08T00:52:10;3.33;;;3.13;;
12788;SDS011;6458;42.710;23.192;2024-03-08T00:54:37;3.33;;;3.13;;
12788;SDS011;6458;42.710;23.192;2024-03-08T00:57:05;2.83;;;2.73;;
12788;SDS011;6458;42.710;23.192;2024-03-08T00:59:32;2.80;;;2.70;;
12788;SDS011;6458;42.710;23.192;2024-03-08T01:01:59;2.73;;;2.60;;
12788;SDS011;6458;42.710;23.192;2024-03-08T01:04:26;3.40;;;3.20;;
12788;SDS011;6458;42.710;23.192;2024-03-08T01:06:54;3.33;;;3.13;;
12788;SDS011;6458;42.710;23.192;2024-03-08T01:09:21;3.30;;;3.10;;
12788;SDS011;6458;42.710;23.192;2024-03-08T01:11:48;3.23;;;2.77;;
12788;SDS011;6458;42.710;23.192;2024-03-08T01:14:17;4.13;;;2.77;;
12788;SDS011;6458;42.710;23.192;2024-03-08T01:16:44;3.40;;;2.90;;
12788;SDS011;6458;42.710;23.192;2024-03-08T01:19:10;2.97;;;2.77;;
12788;SDS011;6458;42.710;23.192;2024-03-08T01:21:38;3.00;;;2.90;;
12788;SDS011;6458;42.710;23.192;2024-03-08T01:24:05;3.40;;;3.17;;
12788;SDS011;6458;42.710;23.192;2024-03-08T01:26:32;3.33;;;3.13;;
12788;SDS011;6458;42.710;23.192;2024-03-08T01:28:59;2.90;;;2.70;;
12788;SDS011;6458;42.710;23.192;2024-03-08T01:31:30;3.20;;;3.10;;
12788;SDS011;6458;42.710;23.192;2024-03-08T01:33:58;2.87;;;2.77;;
12788;SDS011;6458;42.710;23.192;2024-03-08T01:36:28;3.13;;;2.93;;
12788;SDS011;6458;42.710;23.192;2024-03-08T01:38:55;3.17;;;2.97;;
12788;SDS011;6458;42.710;23.192;2024-03-08T01:41:22;2.70;;;2.60;;
12788;SDS011;6458;42.710;23.192;2024-03-08T01:43:49;3.30;;;3.13;;
12788;SDS011;6458;42.710;23.192;2024-03-08T01:46:19;2.40;;;2.30;;
12788;SDS011;6458;42.710;23.192;2024-03-08T01:48:49;2.70;;;2.60;;
12788;SDS011;6458;42.710;23.192;2024-03-08T01:51:17;2.33;;;2.20;;
12788;SDS011;6458;42.710;23.192;2024-03-08T01:53:45;2.60;;;2.40;;
12788;SDS011;6458;42.710;23.192;2024-03-08T01:56:14;2.10;;;2.00;;
12788;SDS011;6458;42.710;23.192;2024-03-08T01:58:41;2.50;;;2.30;;
12788;SDS011;6458;42.710;23.192;2024-03-08T02:01:09;2.07;;;1.97;;
12788;SDS011;6458;42.710;23.192;2024-03-08T02:03:37;2.50;;;2.40;;
12788;SDS011;6458;42.710;23.192;2024-03-08T02:06:06;2.17;;;2.07;;
12788;SDS011;6458;42.710;23.192;2024-03-08T02:08:35;2.20;;;2.10;;
12788;SDS011;6458;42.710;23.192;2024-03-08T02:11:02;1.87;;;1.77;;
12788;SDS011;6458;42.710;23.192;2024-03-08T02:13:30;2.20;;;2.10;;
12788;SDS011;6458;42.710;23.192;2024-03-08T02:15:58;2.27;;;2.20;;
12788;SDS011;6458;42.710;23.192;2024-03-08T02:18:26;2.27;;;2.17;;
12788;SDS011;6458;42.710;23.192;2024-03-08T02:20:56;2.50;;;2.40;;
12788;SDS011;6458;42.710;23.192;2024-03-08T02:23:25;2.40;;;2.30;;
12788;SDS011;6458;42.710;23.192;2024-03-08T02:25:52;2.37;;;2.27;;
12788;SDS011;6458;42.710;23.192;2024-03-08T02:28:21;2.63;;;2.50;;
12788;SDS011;6458;42.710;23.192;2024-03-08T02:30:50;2.40;;;2.30;;
12788;SDS011;6458;42.710;23.192;2024-03-08T02:33:19;2.77;;;2.57;;
12788;SDS011;6458;42.710;23.192;2024-03-08T02:35:47;2.43;;;2.33;;
12788;SDS011;6458;42.710;23.192;2024-03-08T02:38:16;2.53;;;2.43;;
12788;SDS011;6458;42.710;23.192;2024-03-08T02:40:44;2.83;;;2.50;;
12788;SDS011;6458;42.710;23.192;2024-03-08T02:43:12;2.30;;;2.20;;
12788;SDS011;6458;42.710;23.192;2024-03-08T02:45:40;2.23;;;2.13;;
12788;SDS011;6458;42.710;23.192;2024-03-08T02:48:09;3.17;;;2.97;;
12788;SDS011;6458;42.710;23.192;2024-03-08T02:50:36;2.20;;;2.10;;
12788;SDS011;6458;42.710;23.192;2024-03-08T02:53:04;2.30;;;2.20;;
12788;SDS011;6458;42.710;23.192;2024-03-08T02:55:33;2.30;;;2.20;;
12788;SDS011;6458;42.710;23.192;2024-03-08T02:58:00;2.90;;;2.47;;
12788;SDS011;6458;42.710;23.192;2024-03-08T03:00:28;2.17;;;2.13;;
12788;SDS011;6458;42.710;23.192;2024-03-08T03:02:55;2.73;;;2.63;;
12788;SDS011;6458;42.710;23.192;2024-03-08T03:05:22;2.80;;;2.70;;
12788;SDS011;6458;42.710;23.192;2024-03-08T03:07:50;2.57;;;2.47;;
12788;SDS011;6458;42.710;23.192;2024-03-08T03:10:17;2.60;;;2.50;;
12788;SDS011;6458;42.710;23.192;2024-03-08T03:12:48;2.30;;;2.20;;
12788;SDS011;6458;42.710;23.192;2024-03-08T03:15:15;2.77;;;2.67;;
12788;SDS011;6458;42.710;23.192;2024-03-08T03:17:45;3.20;;;3.00;;
12788;SDS011;6458;42.710;23.192;2024-03-08T03:20:13;3.00;;;2.73;;
12788;SDS011;6458;42.710;23.192;2024-03-08T03:22:47;3.03;;;2.93;;
12788;SDS011;6458;42.710;23.192;2024-03-08T03:25:17;2.80;;;2.70;;
12788;SDS011;6458;42.710;23.192;2024-03-08T03:27:51;2.80;;;2.67;;
12788;SDS011;6458;42.710;23.192;2024-03-08T03:30:21;3.83;;;3.60;;
12788;SDS011;6458;42.710;23.192;2024-03-08T03:32:48;3.30;;;3.10;;
12788;SDS011;6458;42.710;23.192;2024-03-08T03:35:16;3.63;;;3.43;;
12788;SDS011;6458;42.710;23.192;2024-03-08T03:37:43;3.17;;;2.97;;
12788;SDS011;6458;42.710;23.192;2024-03-08T03:40:16;3.50;;;3.20;;
12788;SDS011;6458;42.710;23.192;2024-03-08T03:42:44;3.47;;;3.23;;
12788;SDS011;6458;42.710;23.192;2024-03-08T03:45:13;3.93;;;3.30;;
12788;SDS011;6458;42.710;23.192;2024-03-08T03:47:45;2.53;;;2.43;;
12788;SDS011;6458;42.710;23.192;2024-03-08T03:50:11;3.17;;;2.90;;
12788;SDS011;6458;42.710;23.192;2024-03-08T03:52:38;2.57;;;2.37;;
12788;SDS011;6458;42.710;23.192;2024-03-08T03:55:07;2.77;;;2.57;;
12788;SDS011;6458;42.710;23.192;2024-03-08T03:57:37;3.00;;;2.80;;
12788;SDS011;6458;42.710;23.192;2024-03-08T04:00:04;3.00;;;2.80;;
12788;SDS011;6458;42.710;23.192;2024-03-08T04:02:36;3.67;;;2.90;;
12788;SDS011;6458;42.710;23.192;2024-03-08T04:05:04;3.20;;;3.00;;
12788;SDS011;6458;42.710;23.192;2024-03-08T04:07:31;3.20;;;3.00;;
12788;SDS011;6458;42.710;23.192;2024-03-08T04:09:59;2.77;;;2.67;;
12788;SDS011;6458;42.710;23.192;2024-03-08T04:12:26;3.07;;;2.80;;
12788;SDS011;6458;42.710;23.192;2024-03-08T04:14:54;3.23;;;3.03;;
12788;SDS011;6458;42.710;23.192;2024-03-08T04:17:21;3.20;;;2.97;;
12788;SDS011;6458;42.710;23.192;2024-03-08T04:19:50;2.83;;;2.70;;
12788;SDS011;6458;42.710;23.192;2024-03-08T04:22:17;3.33;;;3.13;;
12788;SDS011;6458;42.710;23.192;2024-03-08T04:24:46;3.17;;;2.97;;
12788;SDS011;6458;42.710;23.192;2024-03-08T04:27:13;2.87;;;2.67;;
12788;SDS011;6458;42.710;23.192;2024-03-08T04:29:40;2.43;;;2.33;;
12788;SDS011;6458;42.710;23.192;2024-03-08T04:32:08;2.73;;;2.63;;
12788;SDS011;6458;42.710;23.192;2024-03-08T04:34:38;2.50;;;2.40;;
12788;SDS011;6458;42.710;23.192;2024-03-08T04:37:07;1.90;;;1.90;;
12788;SDS011;6458;42.710;23.192;2024-03-08T04:39:36;2.20;;;2.00;;
12788;SDS011;6458;42.710;23.192;2024-03-08T04:42:03;1.80;;;1.80;;
12788;SDS011;6458;42.710;23.192;2024-03-08T04:44:35;1.93;;;1.90;;
12788;SDS011;6458;42.710;23.192;2024-03-08T04:47:02;2.20;;;2.10;;
12788;SDS011;6458;42.710;23.192;2024-03-08T04:49:31;1.77;;;1.77;;
12788;SDS011;6458;42.710;23.192;2024-03-08T04:52:00;2.33;;;2.23;;
12788;SDS011;6458;42.710;23.192;2024-03-08T04:54:29;2.43;;;2.33;;
12788;SDS011;6458;42.710;23.192;2024-03-08T04:56:56;2.17;;;2.10;;
12788;SDS011;6458;42.710;23.192;2024-03-08T04:59:25;1.90;;;1.80;;
12788;SDS011;6458;42.710;23.192;2024-03-08T05:01:52;2.37;;;2.27;;
12788;SDS011;6458;42.710;23.192;2024-03-08T05:04:19;2.47;;;2.37;;
12788;SDS011;6458;42.710;23.192;2024-03-08T05:06:46;2.30;;;2.20;;
12788;SDS011;6458;42.710;23.192;2024-03-08T05:09:13;3.20;;;2.70;;
12788;SDS011;6458;42.710;23.192;2024-03-08T05:11:43;2.07;;;2.07;;
12788;SDS011;6458;42.710;23.192;2024-03-08T05:14:11;2.43;;;2.33;;
12788;SDS011;6458;42.710;23.192;2024-03-08T05:16:41;2.60;;;2.50;;
12788;SDS011;6458;42.710;23.192;2024-03-08T05:19:08;3.20;;;2.90;;
12788;SDS011;6458;42.710;23.192;2024-03-08T05:21:35;3.57;;;2.70;;
12788;SDS011;6458;42.710;23.192;2024-03-08T05:24:02;2.93;;;2.73;;
12788;SDS011;6458;42.710;23.192;2024-03-08T05:26:30;3.57;;;3.30;;
12788;SDS011;6458;42.710;23.192;2024-03-08T05:28:59;4.60;;;4.20;;
12788;SDS011;6458;42.710;23.192;2024-03-08T05:31:26;5.27;;;4.50;;
12788;SDS011;6458;42.710;23.192;2024-03-08T05:37:15;4.50;;;4.10;;
12788;SDS011;6458;42.710;23.192;2024-03-08T05:39:42;4.07;;;3.37;;
12788;SDS011;6458;42.710;23.192;2024-03-08T05:42:09;2.77;;;2.57;;
12788;SDS011;6458;42.710;23.192;2024-03-08T05:44:40;3.40;;;3.20;;
12788;SDS011;6458;42.710;23.192;2024-03-08T05:47:08;3.37;;;3.10;;
12788;SDS011;6458;42.710;23.192;2024-03-08T05:49:36;3.37;;;3.17;;
12788;SDS011;6458;42.710;23.192;2024-03-08T05:52:03;3.27;;;3.13;;
12788;SDS011;6458;42.710;23.192;2024-03-08T05:54:30;3.50;;;3.30;;
12788;SDS011;6458;42.710;23.192;2024-03-08T05:56:58;4.00;;;3.70;;
12788;SDS011;6458;42.710;23.192;2024-03-08T05:59:25;4.10;;;3.80;;
12788;SDS011;6458;42.710;23.192;2024-03-08T06:01:53;6.47;;;4.13;;
12788;SDS011;6458;42.710;23.192;2024-03-08T06:04:21;6.23;;;4.60;;
12788;SDS011;6458;42.710;23.192;2024-03-08T06:06:48;4.50;;;4.10;;
12788;SDS011;6458;42.710;23.192;2024-03-08T06:09:16;6.33;;;5.73;;
12788;SDS011;6458;42.710;23.192;2024-03-08T06:11:48;6.07;;;5.23;;
12788;SDS011;6458;42.710;23.192;2024-03-08T06:14:14;4.70;;;4.30;;
12788;SDS011;6458;42.710;23.192;2024-03-08T06:16:43;5.17;;;4.70;;
12788;SDS011;6458;42.710;23.192;2024-03-08T06:19:12;8.30;;;4.50;;
12788;SDS011;6458;42.710;23.192;2024-03-08T06:21:39;5.07;;;4.60;;
12788;SDS011;6458;42.710;23.192;2024-03-08T06:24:06;4.53;;;4.13;;
12788;SDS011;6458;42.710;23.192;2024-03-08T06:26:33;4.63;;;4.23;;
12788;SDS011;6458;42.710;23.192;2024-03-08T06:29:02;5.17;;;4.70;;
12788;SDS011;6458;42.710;23.192;2024-03-08T06:31:31;5.27;;;4.77;;
12788;SDS011;6458;42.710;23.192;2024-03-08T06:33:58;5.37;;;4.87;;
12788;SDS011;6458;42.710;23.192;2024-03-08T06:36:27;4.50;;;4.20;;
12788;SDS011;6458;42.710;23.192;2024-03-08T06:38:54;5.67;;;5.00;;
12788;SDS011;6458;42.710;23.192;2024-03-08T06:41:22;5.33;;;4.60;;
12788;SDS011;6458;42.710;23.192;2024-03-08T06:43:49;8.27;;;5.17;;
12788;SDS011;6458;42.710;23.192;2024-03-08T06:46:22;4.53;;;4.13;;
12788;SDS011;6458;42.710;23.192;2024-03-08T06:48:49;4.93;;;4.53;;
12788;SDS011;6458;42.710;23.192;2024-03-08T06:51:16;7.43;;;5.07;;
12788;SDS011;6458;42.710;23.192;2024-03-08T06:57:07;4.57;;;4.10;;
12788;SDS011;6458;42.710;23.192;2024-03-08T06:59:35;5.97;;;5.37;;
12788;SDS011;6458;42.710;23.192;2024-03-08T07:02:03;7.93;;;5.80;;
12788;SDS011;6458;42.710;23.192;2024-03-08T07:04:34;5.73;;;5.20;;
12788;SDS011;6458;42.710;23.192;2024-03-08T07:07:03;7.97;;;5.10;;
12788;SDS011;6458;42.710;23.192;2024-03-08T07:09:30;5.50;;;5.00;;
12788;SDS011;6458;42.710;23.192;2024-03-08T07:11:57;4.83;;;4.43;;
12788;SDS011;6458;42.710;23.192;2024-03-08T07:14:26;4.60;;;4.20;;
12788;SDS011;6458;42.710;23.192;2024-03-08T07:16:53;4.93;;;4.53;;
12788;SDS011;6458;42.710;23.192;2024-03-08T07:19:21;6.00;;;5.37;;
12788;SDS011;6458;42.710;23.192;2024-03-08T07:21:49;7.43;;;4.83;;
12788;SDS011;6458;42.710;23.192;2024-03-08T07:24:16;5.90;;;4.63;;
12788;SDS011;6458;42.710;23.192;2024-03-08T07:27:03;6.60;;;4.77;;
12788;SDS011;6458;42.710;23.192;2024-03-08T07:29:31;7.20;;;5.93;;
12788;SDS011;6458;42.710;23.192;2024-03-08T07:31:59;8.23;;;6.77;;
12788;SDS011;6458;42.710;23.192;2024-03-08T07:34:37;6.93;;;5.80;;
12788;SDS011;6458;42.710;23.192;2024-03-08T07:37:05;5.93;;;5.40;;
12788;SDS011;6458;42.710;23.192;2024-03-08T07:39:36;7.73;;;4.97;;
12788;SDS011;6458;42.710;23.192;2024-03-08T07:42:04;7.27;;;5.27;;
12788;SDS011;6458;42.710;23.192;2024-03-08T07:44:32;7.00;;;5.67;;
12788;SDS011;6458;42.710;23.192;2024-03-08T07:46:59;5.10;;;4.67;;
12788;SDS011;6458;42.710;23.192;2024-03-08T07:49:26;8.00;;;6.07;;
12788;SDS011;6458;42.710;23.192;2024-03-08T07:51:55;8.33;;;5.00;;
12788;SDS011;6458;42.710;23.192;2024-03-08T07:54:22;5.43;;;4.90;;
12788;SDS011;6458;42.710;23.192;2024-03-08T07:56:51;8.00;;;5.30;;
12788;SDS011;6458;42.710;23.192;2024-03-08T07:59:17;5.67;;;5.17;;
12788;SDS011;6458;42.710;23.192;2024-03-08T08:01:47;4.77;;;4.37;;
12788;SDS011;6458;42.710;23.192;2024-03-08T08:04:17;5.67;;;5.17;;
12788;SDS011;6458;42.710;23.192;2024-03-08T08:06:49;4.73;;;4.30;;
12788;SDS011;6458;42.710;23.192;2024-03-08T08:09:16;6.70;;;5.30;;
12788;SDS011;6458;42.710;23.192;2024-03-08T08:11:53;4.37;;;4.03;;
12788;SDS011;6458;42.710;23.192;2024-03-08T08:14:20;5.13;;;3.90;;
12788;SDS011;6458;42.710;23.192;2024-03-08T08:16:51;3.73;;;3.53;;
12788;SDS011;6458;42.710;23.192;2024-03-08T08:19:21;4.03;;;3.73;;
12788;SDS011;6458;42.710;23.192;2024-03-08T08:21:51;5.03;;;3.33;;
12788;SDS011;6458;42.710;23.192;2024-03-08T08:24:18;8.17;;;4.33;;
12788;SDS011;6458;42.710;23.192;2024-03-08T08:26:47;4.60;;;4.20;;
12788;SDS011;6458;42.710;23.192;2024-03-08T08:29:14;4.33;;;3.73;;
12788;SDS011;6458;42.710;23.192;2024-03-08T08:31:42;3.73;;;3.43;;
12788;SDS011;6458;42.710;23.192;2024-03-08T08:34:10;3.60;;;3.30;;
12788;SDS011;6458;42.710;23.192;2024-03-08T08:36:38;3.90;;;3.60;;
12788;SDS011;6458;42.710;23.192;2024-03-08T08:39:08;4.13;;;3.83;;
12788;SDS011;6458;42.710;23.192;2024-03-08T08:41:38;3.30;;;3.10;;
12788;SDS011;6458;42.710;23.192;2024-03-08T08:44:06;3.53;;;3.20;;
12788;SDS011;6458;42.710;23.192;2024-03-08T08:46:35;3.97;;;3.67;;
12788;SDS011;6458;42.710;23.192;2024-03-08T08:49:05;3.60;;;3.40;;
12788;SDS011;6458;42.710;23.192;2024-03-08T08:51:37;3.87;;;3.57;;
12788;SDS011;6458;42.710;23.192;2024-03-08T08:54:04;3.83;;;3.53;;
12788;SDS011;6458;42.710;23.192;2024-03-08T08:56:32;3.63;;;3.33;;
12788;SDS011;6458;42.710;23.192;2024-03-08T08:58:58;4.10;;;3.80;;
12788;SDS011;6458;42.710;23.192;2024-03-08T09:01:25;4.00;;;3.53;;
12788;SDS011;6458;42.710;23.192;2024-03-08T09:03:54;3.20;;;3.00;;
12788;SDS011;6458;42.710;23.192;2024-03-08T09:06:21;3.37;;;3.17;;
12788;SDS011;6458;42.710;23.192;2024-03-08T09:08:49;3.80;;;3.50;;
12788;SDS011;6458;42.710;23.192;2024-03-08T09:11:16;3.80;;;3.60;;
12788;SDS011;6458;42.710;23.192;2024-03-08T09:13:44;4.03;;;3.77;;
12788;SDS011;6458;42.710;23.192;2024-03-08T09:16:12;6.47;;;4.00;;
12788;SDS011;6458;42.710;23.192;2024-03-08T09:18:39;3.60;;;3.40;;
12788;SDS011;6458;42.710;23.192;2024-03-08T09:21:06;3.23;;;3.03;;
12788;SDS011;6458;42.710;23.192;2024-03-08T09:23:35;3.03;;;2.83;;
12788;SDS011;6458;42.710;23.192;2024-03-08T09:26:03;3.00;;;2.80;;
12788;SDS011;6458;42.710;23.192;2024-03-08T09:28:31;3.77;;;3.47;;
12788;SDS011;6458;42.710;23.192;2024-03-08T09:30:58;2.63;;;2.53;;
12788;SDS011;6458;42.710;23.192;2024-03-08T09:33:26;4.10;;;3.40;;
12788;SDS011;6458;42.710;23.192;2024-03-08T09:35:54;3.23;;;3.00;;
12788;SDS011;6458;42.710;23.192;2024-03-08T09:38:22;3.60;;;3.40;;
12788;SDS011;6458;42.710;23.192;2024-03-08T09:40:53;3.10;;;2.90;;
12788;SDS011;6458;42.710;23.192;2024-03-08T09:43:23;3.03;;;2.83;;
12788;SDS011;6458;42.710;23.192;2024-03-08T09:45:50;2.80;;;2.70;;
12788;SDS011;6458;42.710;23.192;2024-03-08T09:48:17;2.90;;;2.70;;
12788;SDS011;6458;42.710;23.192;2024-03-08T09:50:45;2.90;;;2.80;;
12788;SDS011;6458;42.710;23.192;2024-03-08T09:53:13;3.57;;;3.27;;
12788;SDS011;6458;42.710;23.192;2024-03-08T09:55:40;4.00;;;3.80;;
12788;SDS011;6458;42.710;23.192;2024-03-08T09:58:10;3.57;;;3.23;;
12788;SDS011;6458;42.710;23.192;2024-03-08T10:01:15;4.00;;;3.70;;
12788;SDS011;6458;42.710;23.192;2024-03-08T10:03:43;3.70;;;3.40;;
12788;SDS011;6458;42.710;23.192;2024-03-08T10:06:13;4.53;;;4.03;;
12788;SDS011;6458;42.710;23.192;2024-03-08T10:08:40;3.40;;;3.20;;
12788;SDS011;6458;42.710;23.192;2024-03-08T10:11:10;3.83;;;3.40;;
12788;SDS011;6458;42.710;23.192;2024-03-08T10:13:37;3.47;;;3.27;;
12788;SDS011;6458;42.710;23.192;2024-03-08T10:16:05;4.03;;;3.73;;
12788;SDS011;6458;42.710;23.192;2024-03-08T10:18:35;3.50;;;3.37;;
12788;SDS011;6458;42.710;23.192;2024-03-08T10:21:04;3.20;;;3.00;;
12788;SDS011;6458;42.710;23.192;2024-03-08T10:23:32;3.20;;;2.90;;
12788;SDS011;6458;42.710;23.192;2024-03-08T10:26:09;2.97;;;2.87;;
12788;SDS011;6458;42.710;23.192;2024-03-08T10:28:41;2.77;;;2.67;;
12788;SDS011;6458;42.710;23.192;2024-03-08T10:31:08;2.97;;;2.83;;
12788;SDS011;6458;42.710;23.192;2024-03-08T10:33:37;3.77;;;3.47;;
12788;SDS011;6458;42.710;23.192;2024-03-08T10:36:05;2.93;;;2.83;;
12788;SDS011;6458;42.710;23.192;2024-03-08T10:38:35;3.50;;;3.30;;
12788;SDS011;6458;42.710;23.192;2024-03-08T10:41:04;3.20;;;3.00;;
12788;SDS011;6458;42.710;23.192;2024-03-08T10:43:40;3.43;;;3.13;;
12788;SDS011;6458;42.710;23.192;2024-03-08T10:46:27;3.13;;;2.93;;
12788;SDS011;6458;42.710;23.192;2024-03-08T10:49:04;2.40;;;2.30;;
12788;SDS011;6458;42.710;23.192;2024-03-08T10:51:44;2.70;;;2.60;;
12788;SDS011;6458;42.710;23.192;2024-03-08T10:54:12;2.93;;;2.73;;
12788;SDS011;6458;42.710;23.192;2024-03-08T10:56:43;2.40;;;2.30;;
12788;SDS011;6458;42.710;23.192;2024-03-08T10:59:11;1.97;;;1.87;;
12788;SDS011;6458;42.710;23.192;2024-03-08T11:01:39;2.93;;;2.73;;
12788;SDS011;6458;42.710;23.192;2024-03-08T11:04:07;3.30;;;3.10;;
12788;SDS011;6458;42.710;23.192;2024-03-08T11:06:41;3.40;;;3.20;;
12788;SDS011;6458;42.710;23.192;2024-03-08T11:14:53;3.17;;;3.07;;
12788;SDS011;6458;42.710;23.192;2024-03-08T11:17:20;3.13;;;3.03;;
12788;SDS011;6458;42.710;23.192;2024-03-08T11:19:59;3.27;;;2.93;;
12788;SDS011;6458;42.710;23.192;2024-03-08T11:22:31;2.80;;;2.70;;
12788;SDS011;6458;42.710;23.192;2024-03-08T11:24:59;2.43;;;2.30;;
12788;SDS011;6458;42.710;23.192;2024-03-08T11:27:33;2.77;;;2.57;;
12788;SDS011;6458;42.710;23.192;2024-03-08T11:30:05;2.90;;;2.70;;
12788;SDS011;6458;42.710;23.192;2024-03-08T11:32:43;2.53;;;2.43;;
12788;SDS011;6458;42.710;23.192;2024-03-08T11:35:21;3.07;;;2.87;;
12788;SDS011;6458;42.710;23.192;2024-03-08T11:37:51;2.60;;;2.50;;
12788;SDS011;6458;42.710;23.192;2024-03-08T11:40:19;2.90;;;2.80;;
12788;SDS011;6458;42.710;23.192;2024-03-08T11:42:48;2.30;;;2.20;;
12788;SDS011;6458;42.710;23.192;2024-03-08T11:45:16;2.83;;;2.57;;
12788;SDS011;6458;42.710;23.192;2024-03-08T11:47:46;2.80;;;2.70;;
12788;SDS011;6458;42.710;23.192;2024-03-08T11:50:17;2.30;;;2.20;;
12788;SDS011;6458;42.710;23.192;2024-03-08T11:52:48;2.67;;;2.57;;
12788;SDS011;6458;42.710;23.192;2024-03-08T11:55:16;2.63;;;2.53;;
12788;SDS011;6458;42.710;23.192;2024-03-08T11:57:44;2.53;;;2.43;;
12788;SDS011;6458;42.710;23.192;2024-03-08T12:00:14;2.90;;;2.80;;
12788;SDS011;6458;42.710;23.192;2024-03-08T12:03:00;3.00;;;2.90;;
12788;SDS011;6458;42.710;23.192;2024-03-08T12:05:30;2.50;;;2.40;;
12788;SDS011;6458;42.710;23.192;2024-03-08T12:08:01;2.63;;;2.43;;
12788;SDS011;6458;42.710;23.192;2024-03-08T12:10:30;2.57;;;2.47;;
12788;SDS011;6458;42.710;23.192;2024-03-08T12:13:03;2.50;;;2.40;;
12788;SDS011;6458;42.710;23.192;2024-03-08T12:15:39;2.90;;;2.67;;
12788;SDS011;6458;42.710;23.192;2024-03-08T12:18:09;2.33;;;2.23;;
12788;SDS011;6458;42.710;23.192;2024-03-08T12:20:38;2.40;;;2.30;;
12788;SDS011;6458;42.710;23.192;2024-03-08T12:23:19;2.77;;;2.67;;
12788;SDS011;6458;42.710;23.192;2024-03-08T12:25:51;2.53;;;2.43;;
12788;SDS011;6458;42.710;23.192;2024-03-08T12:28:22;4.27;;;2.30;;
12788;SDS011;6458;42.710;23.192;2024-03-08T12:30:56;2.77;;;2.47;;
12788;SDS011;6458;42.710;23.192;2024-03-08T12:33:24;2.37;;;2.27;;
12788;SDS011;6458;42.710;23.192;2024-03-08T12:35:54;2.53;;;2.33;;
12788;SDS011;6458;42.710;23.192;2024-03-08T12:38:27;1.90;;;1.90;;
12788;SDS011;6458;42.710;23.192;2024-03-08T12:40:57;2.20;;;1.97;;
12788;SDS011;6458;42.710;23.192;2024-03-08T12:43:25;2.20;;;2.00;;
12788;SDS011;6458;42.710;23.192;2024-03-08T12:45:55;2.20;;;2.10;;
12788;SDS011;6458;42.710;23.192;2024-03-08T12:48:22;2.40;;;2.30;;
12788;SDS011;6458;42.710;23.192;2024-03-08T12:50:50;2.57;;;2.47;;
12788;SDS011;6458;42.710;23.192;2024-03-08T12:53:17;2.50;;;2.40;;
12788;SDS011;6458;42.710;23.192;2024-03-08T12:59:08;2.20;;;2.10;;
12788;SDS011;6458;42.710;23.192;2024-03-08T13:01:35;1.93;;;1.90;;
12788;SDS011;6458;42.710;23.192;2024-03-08T13:04:09;2.43;;;2.17;;
12788;SDS011;6458;42.710;23.192;2024-03-08T13:06:46;2.77;;;2.57;;
12788;SDS011;6458;42.710;23.192;2024-03-08T13:09:31;2.80;;;2.50;;
12788;SDS011;6458;42.710;23.192;2024-03-08T13:12:05;1.73;;;1.73;;
12788;SDS011;6458;42.710;23.192;2024-03-08T13:14:45;2.23;;;2.13;;
12788;SDS011;6458;42.710;23.192;2024-03-08T13:17:12;1.87;;;1.87;;
12788;SDS011;6458;42.710;23.192;2024-03-08T13:19:39;1.93;;;1.93;;
12788;SDS011;6458;42.710;23.192;2024-03-08T13:22:07;2.40;;;2.20;;
12788;SDS011;6458;42.710;23.192;2024-03-08T13:24:38;1.97;;;1.97;;
12788;SDS011;6458;42.710;23.192;2024-03-08T13:27:07;2.40;;;2.30;;
12788;SDS011;6458;42.710;23.192;2024-03-08T13:29:46;2.63;;;2.53;;
12788;SDS011;6458;42.710;23.192;2024-03-08T13:32:14;1.93;;;1.93;;
12788;SDS011;6458;42.710;23.192;2024-03-08T13:34:42;2.07;;;1.97;;
12788;SDS011;6458;42.710;23.192;2024-03-08T13:37:10;2.70;;;2.60;;
12788;SDS011;6458;42.710;23.192;2024-03-08T13:39:43;2.67;;;2.40;;
12788;SDS011;6458;42.710;23.192;2024-03-08T13:42:10;2.47;;;2.37;;
12788;SDS011;6458;42.710;23.192;2024-03-08T13:44:38;2.57;;;2.43;;
12788;SDS011;6458;42.710;23.192;2024-03-08T13:47:10;2.67;;;2.47;;
12788;SDS011;6458;42.710;23.192;2024-03-08T13:49:38;2.60;;;2.50;;
12788;SDS011;6458;42.710;23.192;2024-03-08T13:52:08;4.10;;;2.73;;
12788;SDS011;6458;42.710;23.192;2024-03-08T13:54:35;3.47;;;2.70;;
12788;SDS011;6458;42.710;23.192;2024-03-08T13:57:03;2.37;;;2.30;;
12788;SDS011;6458;42.710;23.192;2024-03-08T13:59:32;2.63;;;2.53;;
12788;SDS011;6458;42.710;23.192;2024-03-08T14:02:00;2.40;;;2.30;;
12788;SDS011;6458;42.710;23.192;2024-03-08T14:04:31;1.80;;;1.70;;
12788;SDS011;6458;42.710;23.192;2024-03-08T14:06:58;2.70;;;2.50;;
12788;SDS011;6458;42.710;23.192;2024-03-08T14:09:28;2.80;;;2.63;;
12788;SDS011;6458;42.710;23.192;2024-03-08T14:11:56;2.70;;;2.60;;
12788;SDS011;6458;42.710;23.192;2024-03-08T14:14:23;2.57;;;2.37;;
12788;SDS011;6458;42.710;23.192;2024-03-08T14:16:50;2.00;;;2.00;;
12788;SDS011;6458;42.710;23.192;2024-03-08T14:19:20;2.40;;;2.30;;
12788;SDS011;6458;42.710;23.192;2024-03-08T14:21:49;2.83;;;2.73;;
12788;SDS011;6458;42.710;23.192;2024-03-08T14:24:18;2.20;;;2.10;;
12788;SDS011;6458;42.710;23.192;2024-03-08T14:26:45;2.40;;;1.93;;
12788;SDS011;6458;42.710;23.192;2024-03-08T14:29:13;2.40;;;2.30;;
12788;SDS011;6458;42.710;23.192;2024-03-08T14:31:41;2.90;;;2.70;;
12788;SDS011;6458;42.710;23.192;2024-03-08T14:34:08;3.10;;;2.90;;
12788;SDS011;6458;42.710;23.192;2024-03-08T14:36:35;4.57;;;2.20;;
12788;SDS011;6458;42.710;23.192;2024-03-08T14:39:04;2.80;;;2.60;;
12788;SDS011;6458;42.710;23.192;2024-03-08T14:41:32;2.70;;;2.60;;
12788;SDS011;6458;42.710;23.192;2024-03-08T14:43:59;1.97;;;1.97;;
12788;SDS011;6458;42.710;23.192;2024-03-08T14:46:28;2.10;;;2.00;;
12788;SDS011;6458;42.710;23.192;2024-03-08T14:48:55;2.27;;;2.17;;
12788;SDS011;6458;42.710;23.192;2024-03-08T14:51:22;2.43;;;2.33;;
12788;SDS011;6458;42.710;23.192;2024-03-08T14:53:51;2.00;;;1.90;;
12788;SDS011;6458;42.710;23.192;2024-03-08T14:56:21;2.00;;;1.90;;
12788;SDS011;6458;42.710;23.192;2024-03-08T14:58:48;2.50;;;2.40;;
12788;SDS011;6458;42.710;23.192;2024-03-08T15:01:16;2.73;;;2.63;;
12788;SDS011;6458;42.710;23.192;2024-03-08T15:03:47;2.47;;;2.37;;
12788;SDS011;6458;42.710;23.192;2024-03-08T15:06:14;3.10;;;2.90;;
12788;SDS011;6458;42.710;23.192;2024-03-08T15:08:45;3.30;;;3.10;;
12788;SDS011;6458;42.710;23.192;2024-03-08T15:11:12;2.20;;;2.10;;
12788;SDS011;6458;42.710;23.192;2024-03-08T15:13:47;2.03;;;2.00;;